Time;durP1;ratioP1;P1;durP2;ratioP2;P2;SDS_P1;SDS_P2;PMS_P1;PMS_P2;Temp;Humidity;BMP_temperature;BMP_pressure;BME280_temperature;BME280_humidity;BME280_pressure;Samples;Min_cycle;Max_cycle;Signal;HPM_P1;HPM_P2
2022/12/01 00:02:15;;;;;;;76.50;28.98;;;5.70;99.90;;;;;;5028251;28;20045;-68
2022/12/01 00:04:41;;;;;;;70.78;28.05;;;5.80;99.90;;;;;;5030938;28;20037;-68
2022/12/01 00:07:06;;;;;;;80.65;31.38;;;5.70;99.90;;;;;;5032340;28;20036;-68
2022/12/01 00:12:16;;;;;;;80.88;30.05;;;5.80;99.90;;;;;;5032033;28;20079;-68
2022/12/01 00:14:41;;;;;;;74.38;28.90;;;5.80;99.90;;;;;;5045673;28;20036;-68
2022/12/01 00:17:07;;;;;;;79.13;30.13;;;5.80;99.90;;;;;;5040978;28;20041;-68
2022/12/01 00:19:32;;;;;;;75.15;29.25;;;5.80;99.90;;;;;;5036873;28;20466;-68
2022/12/01 00:21:58;;;;;;;86.38;31.27;;;5.80;99.90;;;;;;5034281;28;20475;-68
2022/12/01 00:24:24;;;;;;;87.22;31.25;;;5.80;99.90;;;;;;5084242;22;20028;-69
2022/12/01 00:26:49;;;;;;;87.32;31.48;;;5.80;99.90;;;;;;5104125;28;20032;-69
2022/12/01 00:29:15;;;;;;;79.47;29.40;;;5.80;99.90;;;;;;5093313;28;20031;-69
2022/12/01 00:31:41;;;;;;;81.63;31.17;;;5.80;99.90;;;;;;5094081;28;20407;-69
2022/12/01 00:34:20;;;;;;;85.13;30.75;;;5.80;99.90;;;;;;5093563;28;20028;-69
2022/12/01 00:36:46;;;;;;;86.28;30.25;;;5.80;99.90;;;;;;5092822;28;20047;-69
2022/12/01 00:39:11;;;;;;;84.25;32.33;;;5.80;99.90;;;;;;5107749;28;20223;-68
2022/12/01 00:41:37;;;;;;;82.22;31.73;;;5.80;99.90;;;;;;5091063;28;20093;-68
2022/12/01 00:44:02;;;;;;;91.55;31.45;;;5.80;99.90;;;;;;5098564;28;20040;-69
2022/12/01 00:46:28;;;;;;;95.93;32.22;;;5.70;99.90;;;;;;5092264;28;20465;-69
2022/12/01 00:48:53;;;;;;;84.10;31.40;;;5.80;99.90;;;;;;5093835;28;20108;-69
2022/12/01 00:51:19;;;;;;;87.45;32.30;;;5.80;99.90;;;;;;5092293;28;20036;-69
2022/12/01 00:53:45;;;;;;;92.82;31.08;;;5.80;99.90;;;;;;5102047;28;20115;-69
2022/12/01 00:56:10;;;;;;;89.03;32.95;;;5.80;99.90;;;;;;5105422;28;20036;-70
2022/12/01 00:58:36;;;;;;;93.22;33.80;;;5.80;99.90;;;;;;5092545;28;20067;-70
2022/12/01 01:01:02;;;;;;;99.60;32.08;;;5.80;99.90;;;;;;5091081;28;20040;-70
2022/12/01 01:03:29;;;;;;;95.63;33.65;;;5.80;99.90;;;;;;5089955;28;20042;-69
2022/12/01 01:05:55;;;;;;;93.30;33.28;;;5.80;99.90;;;;;;5091005;28;20036;-70
2022/12/01 01:08:20;;;;;;;95.80;34.15;;;5.80;99.90;;;;;;5094923;28;20039;-70
2022/12/01 01:10:47;;;;;;;93.90;33.08;;;5.80;99.90;;;;;;5091801;28;20036;-69
2022/12/01 01:13:13;;;;;;;102.93;35.65;;;5.80;99.90;;;;;;5083738;28;20067;-70
2022/12/01 01:15:39;;;;;;;94.35;32.90;;;5.80;99.90;;;;;;5091819;28;20032;-70
2022/12/01 01:18:06;;;;;;;99.70;32.60;;;5.80;99.90;;;;;;5099402;28;20047;-70
2022/12/01 01:20:32;;;;;;;91.07;33.40;;;5.80;99.90;;;;;;5103955;28;20043;-70
2022/12/01 01:22:58;;;;;;;102.95;33.10;;;5.80;99.90;;;;;;5088747;28;20040;-70
2022/12/01 01:25:24;;;;;;;102.05;33.60;;;5.80;99.90;;;;;;5087163;28;20035;-70
2022/12/01 01:27:50;;;;;;;102.78;34.40;;;5.80;99.90;;;;;;5102611;28;20039;-70
2022/12/01 01:30:16;;;;;;;104.50;33.92;;;5.80;99.90;;;;;;5097244;28;20040;-70
2022/12/01 01:32:42;;;;;;;105.30;35.42;;;5.80;99.90;;;;;;5092440;28;20051;-70
2022/12/01 01:35:08;;;;;;;110.25;36.70;;;5.80;99.90;;;;;;5091956;28;20036;-69
2022/12/01 01:37:33;;;;;;;109.93;34.55;;;5.80;99.90;;;;;;5095232;28;20047;-70
2022/12/01 01:39:59;;;;;;;105.60;34.85;;;5.80;99.90;;;;;;5105753;28;20401;-70
2022/12/01 01:42:25;;;;;;;100.18;35.25;;;5.80;99.90;;;;;;5092662;28;20497;-70
2022/12/01 01:44:53;;;;;;;104.07;36.17;;;5.80;99.90;;;;;;5091981;28;20036;-69
2022/12/01 01:47:33;;;;;;;106.40;35.65;;;5.80;99.90;;;;;;5094856;28;20027;-70
2022/12/01 01:50:05;;;;;;;100.22;34.60;;;5.80;99.90;;;;;;5102837;28;20120;-69
2022/12/01 01:52:33;;;;;;;101.50;33.55;;;5.80;99.90;;;;;;5097527;28;20074;-69
2022/12/01 01:54:59;;;;;;;95.10;33.80;;;5.80;99.90;;;;;;5091726;28;20036;-70
2022/12/01 01:57:30;;;;;;;106.22;34.90;;;5.80;99.90;;;;;;5091139;28;20035;-69
2022/12/01 02:00:07;;;;;;;102.80;34.83;;;5.80;99.90;;;;;;5099508;28;20051;-69
2022/12/01 02:02:39;;;;;;;106.90;34.17;;;5.80;99.90;;;;;;5108529;28;20524;-70
2022/12/01 02:05:09;;;;;;;109.75;37.22;;;5.80;99.90;;;;;;5089709;28;20052;-70
2022/12/01 02:07:40;;;;;;;102.00;35.58;;;5.80;99.90;;;;;;5092261;28;20107;-70
2022/12/01 02:10:11;;;;;;;108.22;36.75;;;5.80;99.90;;;;;;5081820;28;20038;-70
2022/12/01 02:12:37;;;;;;;114.07;36.42;;;5.80;99.90;;;;;;5083684;28;20036;-70
2022/12/01 02:15:07;;;;;;;104.18;34.83;;;5.80;99.90;;;;;;5087946;28;20096;-70
2022/12/01 02:17:55;;;;;;;106.97;36.67;;;5.80;99.90;;;;;;5090894;28;20124;-70
2022/12/01 02:20:45;;;;;;;104.70;36.63;;;5.80;99.90;;;;;;5088045;28;20297;-70
2022/12/01 02:23:43;;;;;;;99.93;35.35;;;5.80;99.90;;;;;;5096348;28;20585;-70
2022/12/01 02:26:15;;;;;;;103.70;34.80;;;5.80;99.90;;;;;;5082829;28;20071;-70
2022/12/01 02:29:02;;;;;;;111.15;36.50;;;5.80;99.90;;;;;;5096527;28;20108;-70
2022/12/01 02:31:38;;;;;;;103.20;35.22;;;5.80;99.90;;;;;;5091738;28;20040;-70
2022/12/01 02:34:18;;;;;;;113.25;36.45;;;5.80;99.90;;;;;;5082915;28;20044;-70
2022/12/01 02:36:57;;;;;;;106.82;36.78;;;5.80;99.90;;;;;;5107790;28;20036;-70
2022/12/01 02:39:37;;;;;;;101.93;35.22;;;5.80;99.90;;;;;;5094313;28;20047;-70
2022/12/01 02:42:10;;;;;;;110.32;36.00;;;5.80;99.90;;;;;;5091806;28;20036;-69
2022/12/01 02:44:41;;;;;;;106.05;35.83;;;5.80;99.90;;;;;;5107694;28;20102;-69
2022/12/01 02:47:12;;;;;;;109.95;36.50;;;5.80;99.90;;;;;;5081244;28;20488;-70
2022/12/01 02:49:46;;;;;;;104.65;37.83;;;5.80;99.90;;;;;;5089553;28;20170;-70
2022/12/01 02:52:13;;;;;;;100.25;36.30;;;5.80;99.90;;;;;;5097051;28;20107;-70
2022/12/01 02:54:42;;;;;;;105.10;38.15;;;5.80;99.90;;;;;;5092026;28;20040;-70
2022/12/01 02:57:11;;;;;;;108.15;37.50;;;5.70;99.90;;;;;;5101955;28;20044;-70
2022/12/01 02:59:38;;;;;;;103.72;38.13;;;5.80;99.90;;;;;;5092810;28;20493;-70
2022/12/01 03:02:12;;;;;;;105.43;36.92;;;5.80;99.90;;;;;;5089918;28;20157;-70
2022/12/01 03:05:02;;;;;;;111.53;38.25;;;5.80;99.90;;;;;;5103116;28;20043;-70
2022/12/01 03:07:55;;;;;;;103.10;37.15;;;5.70;99.90;;;;;;5095515;28;20035;-70
2022/12/01 03:10:29;;;;;;;100.25;37.13;;;5.70;99.90;;;;;;5095865;28;20546;-70
2022/12/01 03:13:32;;;;;;;97.35;36.38;;;5.70;99.90;;;;;;5092565;28;20501;-70
2022/12/01 03:16:18;;;;;;;106.25;37.20;;;5.70;99.90;;;;;;5093599;28;20059;-70
2022/12/01 03:19:05;;;;;;;100.18;37.88;;;5.70;99.90;;;;;;5099169;28;20153;-70
2022/12/01 03:22:24;;;;;;;103.82;37.90;;;5.70;99.90;;;;;;5107193;28;20067;-70
2022/12/01 03:24:54;;;;;;;98.68;35.33;;;5.70;99.90;;;;;;5069323;28;20058;-70
2022/12/01 03:27:25;;;;;;;95.45;36.50;;;5.70;99.90;;;;;;5090181;28;20591;-69
2022/12/01 03:29:54;;;;;;;97.82;36.33;;;5.70;99.90;;;;;;5090462;28;20032;-69
2022/12/01 03:32:34;;;;;;;101.93;38.33;;;5.70;99.90;;;;;;5104224;28;20043;-70
2022/12/01 03:35:09;;;;;;;98.75;35.78;;;5.70;99.90;;;;;;5095962;28;20040;-70
2022/12/01 03:37:56;;;;;;;91.00;36.22;;;5.70;99.90;;;;;;5089785;28;20036;-70
2022/12/01 03:40:26;;;;;;;94.70;36.42;;;5.70;99.90;;;;;;5090370;28;20036;-70
2022/12/01 03:43:06;;;;;;;92.68;35.95;;;5.70;99.90;;;;;;5089715;28;20508;-70
2022/12/01 03:45:52;;;;;;;97.57;37.75;;;5.70;99.90;;;;;;5090422;28;20423;-69
2022/12/01 03:48:18;;;;;;;94.28;36.75;;;5.70;99.90;;;;;;5091923;28;20107;-70
2022/12/01 03:51:12;;;;;;;93.60;36.38;;;5.70;99.90;;;;;;5101073;28;20119;-70
2022/12/01 03:53:56;;;;;;;93.78;36.15;;;5.70;99.90;;;;;;5101732;28;20131;-70
2022/12/01 03:56:26;;;;;;;97.85;37.17;;;5.70;99.90;;;;;;5087238;28;20511;-70
2022/12/01 03:58:55;;;;;;;89.38;36.00;;;5.70;99.90;;;;;;5093851;28;20085;-70
2022/12/01 04:01:21;;;;;;;87.30;35.17;;;5.70;99.90;;;;;;5100680;28;20039;-70
2022/12/01 04:03:47;;;;;;;94.70;36.72;;;5.70;99.90;;;;;;5089627;28;20031;-70
2022/12/01 04:06:13;;;;;;;89.03;34.58;;;5.70;99.90;;;;;;5093762;28;20423;-70
2022/12/01 04:08:39;;;;;;;91.97;36.05;;;5.70;99.90;;;;;;5094518;28;20058;-69
2022/12/01 04:12:28;;;;;;;95.07;36.92;;;5.70;99.90;;;;;;5092167;28;20031;-70
2022/12/01 04:13:50;;;;;;;94.70;37.72;;;5.70;99.90;;;;;;5089308;28;20097;-69
2022/12/01 04:16:16;;;;;;;95.55;36.30;;;5.70;99.90;;;;;;5090562;28;20036;-70
2022/12/01 04:18:41;;;;;;;96.57;36.50;;;5.70;99.90;;;;;;5101780;28;20042;-69
2022/12/01 04:21:07;;;;;;;90.03;36.28;;;5.70;99.90;;;;;;5111156;28;20042;-70
2022/12/01 04:26:17;;;;;;;90.00;36.47;;;5.70;99.90;;;;;;5101982;28;20089;-70
2022/12/01 04:28:43;;;;;;;95.95;36.63;;;5.70;99.90;;;;;;5093104;28;20028;-70
2022/12/01 04:31:08;;;;;;;92.32;35.88;;;5.70;99.90;;;;;;5093879;28;20051;-70
2022/12/01 04:33:34;;;;;;;93.32;37.00;;;5.70;99.90;;;;;;5106501;28;20076;-70
2022/12/01 04:36:00;;;;;;;93.15;34.88;;;5.70;99.90;;;;;;5094751;28;20059;-70
2022/12/01 04:38:26;;;;;;;98.43;37.40;;;5.70;99.90;;;;;;5094120;28;20625;-70
2022/12/01 04:40:52;;;;;;;89.18;36.03;;;5.70;99.90;;;;;;5091617;28;20039;-70
2022/12/01 04:43:18;;;;;;;93.20;37.03;;;5.70;99.90;;;;;;5089845;28;20032;-70
2022/12/01 04:45:44;;;;;;;99.13;36.22;;;5.70;99.90;;;;;;5098398;28;20166;-69
2022/12/01 04:48:09;;;;;;;97.38;37.42;;;5.70;99.90;;;;;;5114003;28;20035;-70
2022/12/01 04:50:35;;;;;;;93.43;37.40;;;5.70;99.90;;;;;;5091672;28;20055;-70
2022/12/01 04:53:00;;;;;;;101.03;39.17;;;5.60;99.90;;;;;;5100474;28;20143;-69
2022/12/01 04:55:26;;;;;;;93.70;36.50;;;5.60;99.90;;;;;;5092228;28;20040;-70
2022/12/01 04:57:51;;;;;;;99.13;36.90;;;5.70;99.90;;;;;;5092689;28;20035;-70
2022/12/01 05:00:17;;;;;;;94.30;36.85;;;5.60;99.90;;;;;;5095305;28;20080;-70
2022/12/01 05:02:43;;;;;;;94.95;36.92;;;5.70;99.90;;;;;;5086168;28;20040;-70
2022/12/01 05:05:10;;;;;;;95.47;37.60;;;5.60;99.90;;;;;;5092552;28;20489;-70
2022/12/01 05:07:35;;;;;;;96.45;37.00;;;5.70;99.90;;;;;;5089644;28;20183;-70
2022/12/01 05:10:01;;;;;;;91.85;35.65;;;5.70;99.90;;;;;;5092348;28;20488;-70
2022/12/01 05:12:26;;;;;;;92.57;36.97;;;5.70;99.90;;;;;;5092702;28;20032;-69
2022/12/01 05:14:52;;;;;;;94.47;36.30;;;5.70;99.90;;;;;;5112740;28;20043;-70
2022/12/01 05:17:18;;;;;;;94.35;36.65;;;5.70;99.90;;;;;;5100488;28;20067;-70
2022/12/01 05:22:27;;;;;;;94.47;37.53;;;5.70;99.90;;;;;;5083179;28;20489;-70
2022/12/01 05:24:53;;;;;;;93.43;38.00;;;5.70;99.90;;;;;;5083865;28;20043;-70
2022/12/01 05:27:18;;;;;;;98.03;37.60;;;5.70;99.90;;;;;;5086102;28;20028;-70
2022/12/01 05:29:44;;;;;;;100.65;38.45;;;5.70;99.90;;;;;;5088955;28;20288;-70
2022/12/01 05:32:09;;;;;;;96.35;37.70;;;5.70;99.90;;;;;;5087714;28;20028;-70
2022/12/01 05:34:35;;;;;;;94.95;38.88;;;5.70;99.90;;;;;;5089338;28;20024;-70
2022/12/01 05:37:01;;;;;;;101.13;38.47;;;5.70;99.90;;;;;;5088556;28;20078;-70
2022/12/01 05:39:26;;;;;;;88.28;36.50;;;5.70;99.90;;;;;;5082333;28;20044;-70
2022/12/01 05:41:52;;;;;;;97.78;37.55;;;5.70;99.90;;;;;;5076886;28;20122;-70
2022/12/01 05:44:18;;;;;;;93.70;37.03;;;5.60;99.90;;;;;;5070255;28;20040;-71
2022/12/01 05:46:44;;;;;;;99.95;38.03;;;5.60;99.90;;;;;;5068040;28;20048;-71
2022/12/01 05:49:09;;;;;;;95.82;36.65;;;5.60;99.90;;;;;;5077196;28;20477;-71
2022/12/01 05:51:35;;;;;;;101.45;37.80;;;5.60;99.90;;;;;;5079410;28;20127;-71
2022/12/01 05:54:01;;;;;;;103.28;37.55;;;5.60;99.90;;;;;;5088298;28;20035;-70
2022/12/01 05:56:26;;;;;;;97.70;38.13;;;5.50;99.90;;;;;;5097018;28;20032;-70
2022/12/01 05:58:52;;;;;;;92.80;39.30;;;5.60;99.90;;;;;;5104364;28;20471;-71
2022/12/01 06:01:18;;;;;;;101.45;38.90;;;5.60;99.90;;;;;;5102273;28;20034;-71
2022/12/01 06:03:43;;;;;;;107.13;39.97;;;5.60;99.90;;;;;;5095624;28;20032;-70
2022/12/01 06:06:09;;;;;;;110.65;40.00;;;5.60;99.90;;;;;;5084353;28;20028;-71
2022/12/01 06:08:35;;;;;;;98.95;38.25;;;5.60;99.90;;;;;;5092621;28;20469;-71
2022/12/01 06:11:00;;;;;;;109.70;39.85;;;5.60;99.90;;;;;;5091145;28;20036;-71
2022/12/01 06:13:26;;;;;;;99.43;37.70;;;5.60;99.90;;;;;;5088939;28;20405;-70
2022/12/01 06:15:59;;;;;;;102.97;37.80;;;5.60;99.90;;;;;;5091162;28;20040;-71
2022/12/01 06:18:31;;;;;;;98.03;37.92;;;5.60;99.90;;;;;;5087293;28;20536;-70
2022/12/01 06:20:56;;;;;;;98.80;37.47;;;5.60;99.90;;;;;;5088614;28;20131;-70
2022/12/01 06:23:22;;;;;;;101.80;38.83;;;5.60;99.90;;;;;;5120496;22;20458;-65
2022/12/01 06:25:48;;;;;;;102.00;38.80;;;5.60;99.90;;;;;;5066471;28;20398;-65
2022/12/01 06:28:14;;;;;;;105.53;39.50;;;5.60;99.90;;;;;;5052640;28;20032;-64
2022/12/01 06:30:39;;;;;;;103.22;40.95;;;5.60;99.90;;;;;;5064402;28;20036;-64
2022/12/01 06:33:08;;;;;;;103.32;38.65;;;5.60;99.90;;;;;;5064234;28;20408;-64
2022/12/01 06:35:34;;;;;;;101.18;38.85;;;5.60;99.90;;;;;;5044192;28;20071;-64
2022/12/01 06:38:00;;;;;;;104.28;39.20;;;5.60;99.90;;;;;;5042432;28;20036;-64
2022/12/01 06:40:26;;;;;;;102.75;39.00;;;5.60;99.90;;;;;;5049671;28;20091;-65
2022/12/01 06:42:52;;;;;;;101.22;37.70;;;5.60;99.90;;;;;;5045319;28;20037;-65
2022/12/01 06:45:18;;;;;;;106.03;38.83;;;5.60;99.90;;;;;;5044362;28;20041;-65
2022/12/01 06:47:43;;;;;;;107.20;39.20;;;5.60;99.90;;;;;;5049575;28;20471;-65
2022/12/01 06:50:10;;;;;;;103.82;38.63;;;5.60;99.90;;;;;;5047748;28;20033;-65
2022/12/01 06:52:36;;;;;;;107.32;38.88;;;5.60;99.90;;;;;;5047999;28;20068;-65
2022/12/01 06:55:03;;;;;;;98.70;38.88;;;5.60;99.90;;;;;;5043017;28;20154;-65
2022/12/01 06:57:29;;;;;;;102.80;38.50;;;5.60;99.90;;;;;;5045041;28;20029;-65
2022/12/01 06:59:55;;;;;;;97.63;37.90;;;5.60;99.90;;;;;;5043993;28;20044;-65
2022/12/01 07:02:20;;;;;;;103.32;39.35;;;5.60;99.90;;;;;;5049118;28;20029;-65
2022/12/01 07:04:46;;;;;;;101.05;39.67;;;5.60;99.90;;;;;;5046810;28;20557;-65
2022/12/01 07:07:12;;;;;;;104.45;38.45;;;5.60;99.90;;;;;;5050856;28;20029;-65
2022/12/01 07:09:38;;;;;;;100.10;37.28;;;5.60;99.90;;;;;;5046552;28;20064;-65
2022/12/01 07:12:04;;;;;;;101.85;37.67;;;5.60;99.90;;;;;;5034660;28;20115;-66
2022/12/01 07:14:30;;;;;;;97.18;37.42;;;5.60;99.90;;;;;;5045718;28;20107;-65
2022/12/01 07:16:57;;;;;;;102.32;37.65;;;5.60;99.90;;;;;;5049921;28;20049;-65
2022/12/01 07:19:22;;;;;;;103.75;38.72;;;5.60;99.90;;;;;;5027659;28;20037;-65
2022/12/01 07:21:48;;;;;;;102.32;37.63;;;5.60;99.90;;;;;;5050620;28;20037;-65
2022/12/01 07:24:14;;;;;;;100.28;38.05;;;5.70;99.90;;;;;;5050113;28;20445;-65
2022/12/01 07:26:40;;;;;;;108.72;39.20;;;5.60;99.90;;;;;;5040044;28;20041;-65
2022/12/01 07:29:08;;;;;;;106.38;40.10;;;5.60;99.90;;;;;;5034926;28;20093;-65
2022/12/01 07:31:33;;;;;;;107.55;40.00;;;5.60;99.90;;;;;;5049340;28;20032;-65
2022/12/01 07:33:59;;;;;;;101.88;38.03;;;5.60;99.90;;;;;;5051881;28;20516;-65
2022/12/01 07:36:25;;;;;;;101.75;38.55;;;5.60;99.90;;;;;;5030230;28;20563;-65
2022/12/01 07:38:50;;;;;;;103.90;39.92;;;5.60;99.90;;;;;;5032091;28;20062;-65
2022/12/01 07:41:18;;;;;;;101.82;39.72;;;5.60;99.90;;;;;;5044893;28;20037;-65
2022/12/01 07:43:43;;;;;;;101.38;38.38;;;5.60;99.90;;;;;;5047333;28;20067;-65
2022/12/01 07:46:27;;;;;;;101.65;37.83;;;5.60;99.90;;;;;;5037982;28;20064;-65
2022/12/01 07:48:54;;;;;;;97.28;37.33;;;5.70;99.90;;;;;;5029539;28;20037;-65
2022/12/01 07:51:22;;;;;;;108.18;39.10;;;5.70;99.90;;;;;;5029044;28;20060;-65
2022/12/01 07:53:49;;;;;;;104.28;38.90;;;5.70;99.90;;;;;;5050042;28;20083;-65
2022/12/01 07:56:16;;;;;;;106.40;38.10;;;5.70;99.90;;;;;;5032213;28;20437;-65
2022/12/01 07:58:42;;;;;;;109.50;39.67;;;5.70;99.90;;;;;;5030872;28;20057;-65
2022/12/01 08:01:08;;;;;;;109.13;38.42;;;5.70;99.90;;;;;;5053574;28;20095;-65
2022/12/01 08:03:34;;;;;;;110.13;39.20;;;5.70;99.90;;;;;;5031437;28;20453;-65
2022/12/01 08:06:00;;;;;;;114.80;41.05;;;5.70;99.90;;;;;;5029171;28;20055;-65
2022/12/01 08:08:26;;;;;;;105.65;39.85;;;5.70;99.90;;;;;;5051693;28;20035;-65
2022/12/01 08:10:52;;;;;;;103.30;38.17;;;5.70;99.90;;;;;;5046355;28;20041;-65
2022/12/01 08:13:19;;;;;;;109.50;38.38;;;5.70;99.90;;;;;;5052334;28;20044;-64
2022/12/01 08:15:44;;;;;;;105.55;38.90;;;5.70;99.90;;;;;;5030432;28;20045;-66
2022/12/01 08:18:10;;;;;;;109.40;39.35;;;5.70;99.90;;;;;;5025842;28;20045;-65
2022/12/01 08:20:35;;;;;;;105.93;40.13;;;5.70;99.90;;;;;;5028561;28;20406;-65
2022/12/01 08:23:02;;;;;;;109.80;38.58;;;5.70;99.90;;;;;;5043217;28;20025;-65
2022/12/01 08:25:28;;;;;;;106.30;38.28;;;5.70;99.90;;;;;;5048733;28;20025;-66
2022/12/01 08:27:54;;;;;;;106.95;39.70;;;5.70;99.90;;;;;;5033210;28;20080;-65
2022/12/01 08:30:20;;;;;;;105.13;38.70;;;5.70;99.90;;;;;;5045796;28;20063;-65
2022/12/01 08:32:46;;;;;;;99.50;37.42;;;5.70;99.90;;;;;;5050574;28;20068;-66
2022/12/01 08:35:12;;;;;;;104.78;38.30;;;5.70;99.90;;;;;;5054193;28;20490;-66
2022/12/01 08:37:37;;;;;;;106.18;39.25;;;5.80;99.90;;;;;;5043216;28;20040;-65
2022/12/01 08:40:03;;;;;;;105.15;39.42;;;5.80;99.90;;;;;;5050371;28;20090;-65
2022/12/01 08:42:29;;;;;;;109.32;38.72;;;5.80;99.90;;;;;;5053567;28;20516;-65
2022/12/01 08:44:54;;;;;;;106.20;39.05;;;5.80;99.90;;;;;;5052340;28;20037;-65
2022/12/01 08:47:20;;;;;;;112.88;39.83;;;5.80;99.90;;;;;;5031434;28;20043;-65
2022/12/01 08:49:46;;;;;;;101.75;37.35;;;5.80;99.90;;;;;;5034561;28;20544;-65
2022/12/01 08:52:11;;;;;;;111.28;40.17;;;5.80;99.90;;;;;;5031337;28;20061;-65
2022/12/01 08:54:37;;;;;;;106.35;38.13;;;5.80;99.90;;;;;;5048171;28;20497;-64
2022/12/01 08:57:03;;;;;;;110.15;39.05;;;5.90;99.90;;;;;;5048245;28;20055;-65
2022/12/01 08:59:28;;;;;;;106.25;37.70;;;5.90;99.90;;;;;;5051291;28;20037;-64
2022/12/01 09:01:56;;;;;;;106.00;37.38;;;5.90;99.90;;;;;;5048994;28;20580;-65
2022/12/01 09:04:25;;;;;;;94.43;35.53;;;5.90;99.90;;;;;;5032131;28;20547;-66
2022/12/01 09:06:53;;;;;;;103.35;37.03;;;5.90;99.90;;;;;;5034438;28;20490;-65
2022/12/01 09:09:24;;;;;;;98.63;35.83;;;5.90;99.90;;;;;;5048401;28;20040;-65
2022/12/01 09:11:54;;;;;;;106.75;37.47;;;5.90;99.90;;;;;;5050391;28;20481;-65
2022/12/01 09:14:21;;;;;;;102.65;35.63;;;5.90;99.90;;;;;;5051928;28;20044;-64
2022/12/01 09:16:51;;;;;;;96.25;35.38;;;6.00;99.90;;;;;;5053068;28;20033;-65
2022/12/01 09:19:18;;;;;;;105.65;37.60;;;5.90;99.90;;;;;;5050760;28;20032;-65
2022/12/01 09:21:44;;;;;;;105.07;37.38;;;5.90;99.90;;;;;;5051207;28;20506;-65
2022/12/01 09:24:12;;;;;;;98.47;34.58;;;5.90;99.90;;;;;;5051292;28;20040;-65
2022/12/01 09:26:37;;;;;;;94.47;36.20;;;5.90;99.90;;;;;;5043360;28;20041;-66
2022/12/01 09:29:08;;;;;;;107.90;36.85;;;6.00;99.90;;;;;;5052588;28;20429;-65
2022/12/01 09:31:34;;;;;;;99.93;36.10;;;6.00;99.90;;;;;;5053125;28;20067;-66
2022/12/01 09:34:06;;;;;;;98.40;35.60;;;6.00;99.90;;;;;;5028687;28;20037;-65
2022/12/01 09:36:32;;;;;;;;;;;6.00;99.90;;;;;;5053337;28;20082;-66
2022/12/01 09:38:58;;;;;;;91.88;31.60;;;6.00;99.90;;;;;;5033652;28;20454;-65
2022/12/01 09:41:36;;;;;;;86.50;32.75;;;5.90;99.90;;;;;;5034834;28;20080;-66
2022/12/01 09:44:33;;;;;;;87.68;33.13;;;6.00;99.90;;;;;;5034146;28;20037;-66
2022/12/01 09:47:07;;;;;;;89.32;35.00;;;6.00;99.90;;;;;;5051970;28;20032;-65
2022/12/01 09:50:00;;;;;;;92.00;33.70;;;6.00;99.90;;;;;;5051182;28;20029;-66
2022/12/01 09:52:31;;;;;;;93.25;33.72;;;6.00;99.90;;;;;;5046788;28;20095;-65
2022/12/01 09:54:59;;;;;;;94.32;35.38;;;6.10;99.90;;;;;;5050440;28;20045;-66
2022/12/01 09:57:34;;;;;;;90.80;34.35;;;6.10;99.90;;;;;;5039931;28;20037;-67
2022/12/01 10:00:19;;;;;;;89.25;32.78;;;6.10;99.90;;;;;;5036101;28;20521;-65
2022/12/01 10:03:13;;;;;;;88.28;33.13;;;6.10;99.90;;;;;;5031064;28;20236;-65
2022/12/01 10:05:54;;;;;;;91.70;34.63;;;6.20;99.90;;;;;;5049361;28;20086;-65
2022/12/01 10:08:23;;;;;;;92.05;34.75;;;6.10;99.90;;;;;;5051794;28;20486;-65
2022/12/01 10:10:53;;;;;;;87.90;33.25;;;6.10;99.90;;;;;;5052251;28;20453;-66
2022/12/01 10:13:24;;;;;;;80.95;30.80;;;6.20;99.90;;;;;;5052147;28;20102;-65
2022/12/01 10:15:53;;;;;;;82.95;31.48;;;6.20;99.90;;;;;;5040959;28;20040;-66
2022/12/01 10:18:30;;;;;;;82.10;32.22;;;6.20;99.90;;;;;;5052602;28;20041;-66
2022/12/01 10:21:02;;;;;;;80.57;30.63;;;6.20;99.90;;;;;;5046568;28;20127;-65
2022/12/01 10:24:06;;;;;;;84.38;32.53;;;6.20;99.90;;;;;;5051316;28;20502;-65
2022/12/01 10:26:55;;;;;;;85.20;33.00;;;6.20;99.90;;;;;;5052395;28;20090;-65
2022/12/01 10:29:24;;;;;;;84.88;32.35;;;6.20;99.90;;;;;;5050719;28;20108;-65
2022/12/01 10:31:57;;;;;;;78.53;31.70;;;6.30;99.90;;;;;;5052111;28;20072;-65
2022/12/01 10:34:36;;;;;;;81.05;32.17;;;6.30;99.90;;;;;;5050803;28;20047;-65
2022/12/01 10:37:02;;;;;;;76.70;31.20;;;6.30;99.90;;;;;;5050735;28;20394;-65
2022/12/01 10:39:38;;;;;;;81.13;30.73;;;6.30;99.90;;;;;;5050561;28;20474;-65
2022/12/01 10:42:26;;;;;;;82.03;32.40;;;6.30;99.90;;;;;;5043683;28;20040;-65
2022/12/01 10:44:54;;;;;;;77.55;31.85;;;6.40;99.90;;;;;;5051492;28;20087;-65
2022/12/01 10:47:24;;;;;;;84.47;31.92;;;6.40;99.90;;;;;;5034126;28;20037;-65
2022/12/01 10:49:51;;;;;;;75.68;30.80;;;6.40;99.90;;;;;;5051271;28;20040;-64
2022/12/01 10:52:38;;;;;;;84.40;34.03;;;6.50;99.90;;;;;;5034398;28;20037;-65
2022/12/01 10:55:23;;;;;;;80.30;32.13;;;6.40;99.90;;;;;;5050773;28;20033;-65
2022/12/01 10:57:51;;;;;;;79.47;31.73;;;6.40;99.90;;;;;;5048638;28;20521;-65
2022/12/01 11:00:26;;;;;;;79.90;32.30;;;6.40;99.90;;;;;;5031592;28;20077;-65
2022/12/01 11:02:51;;;;;;;73.13;30.10;;;6.50;99.90;;;;;;5013675;28;20148;-65
2022/12/01 11:05:26;;;;;;;76.80;30.48;;;6.40;99.90;;;;;;5032106;28;20034;-65
2022/12/01 11:07:52;;;;;;;72.50;28.23;;;6.50;99.90;;;;;;5049742;28;20025;-65
2022/12/01 11:10:36;;;;;;;75.15;29.98;;;6.50;99.90;;;;;;5051038;28;20041;-65
2022/12/01 11:13:27;;;;;;;74.10;29.02;;;6.50;99.90;;;;;;5051234;28;20094;-65
2022/12/01 11:15:58;;;;;;;78.03;30.77;;;6.50;99.90;;;;;;5050224;28;20520;-65
2022/12/01 11:18:26;;;;;;;73.88;30.80;;;6.50;99.90;;;;;;5044736;28;20051;-65
2022/12/01 11:21:24;;;;;;;75.78;31.00;;;6.50;99.90;;;;;;5050229;28;20052;-65
2022/12/01 11:23:51;;;;;;;68.82;29.33;;;6.50;99.90;;;;;;5051121;28;20043;-65
2022/12/01 11:26:24;;;;;;;75.15;30.40;;;6.50;99.90;;;;;;5051295;28;20037;-65
2022/12/01 11:28:56;;;;;;;71.38;30.27;;;6.50;99.90;;;;;;5050575;28;20029;-65
2022/12/01 11:31:35;;;;;;;75.55;29.95;;;6.50;99.90;;;;;;5051071;28;20486;-65
2022/12/01 11:34:01;;;;;;;75.60;29.85;;;6.50;99.90;;;;;;5051335;28;20397;-65
2022/12/01 11:36:42;;;;;;;73.78;28.38;;;6.50;99.90;;;;;;5050241;28;20029;-65
2022/12/01 11:39:49;;;;;;;80.47;32.38;;;6.50;99.90;;;;;;5043955;28;20282;-65
2022/12/01 11:42:23;;;;;;;78.47;29.27;;;6.50;99.90;;;;;;5037748;28;20053;-65
2022/12/01 11:44:55;;;;;;;77.65;30.27;;;6.50;99.90;;;;;;5038029;28;20047;-65
2022/12/01 11:47:24;;;;;;;70.00;28.75;;;6.50;99.90;;;;;;5044401;28;20057;-64
2022/12/01 11:50:02;;;;;;;73.70;28.65;;;6.50;99.90;;;;;;5029045;28;20502;-65
2022/12/01 11:52:31;;;;;;;74.53;29.17;;;6.50;99.90;;;;;;5042994;28;20041;-66
2022/12/01 11:55:02;;;;;;;76.15;30.95;;;6.50;99.90;;;;;;5050574;28;20037;-66
2022/12/01 11:57:29;;;;;;;72.78;29.02;;;6.50;99.90;;;;;;5051302;28;20123;-65
2022/12/01 11:59:55;;;;;;;72.32;29.77;;;6.50;99.90;;;;;;5048931;28;20491;-65
2022/12/01 12:02:55;;;;;;;72.28;30.27;;;6.60;99.90;;;;;;5029453;28;20033;-66
2022/12/01 12:05:44;;;;;;;67.13;28.75;;;6.60;99.90;;;;;;5048961;28;20037;-65
2022/12/01 12:08:13;;;;;;;66.43;28.52;;;6.60;99.90;;;;;;5047630;28;20048;-66
2022/12/01 12:11:01;;;;;;;71.03;28.73;;;6.60;99.90;;;;;;5050908;28;20045;-65
2022/12/01 12:13:55;;;;;;;72.97;29.52;;;6.60;99.90;;;;;;5048535;28;20149;-66
2022/12/01 12:16:43;;;;;;;60.38;26.65;;;6.60;99.90;;;;;;5045238;28;20064;-66
2022/12/01 12:19:30;;;;;;;64.65;28.95;;;6.60;99.90;;;;;;4983939;28;20063;-65
2022/12/01 12:22:12;;;;;;;70.60;30.30;;;6.60;99.90;;;;;;5053319;28;20068;-65
2022/12/01 12:25:03;;;;;;;64.43;25.88;;;6.60;99.90;;;;;;5075394;22;20553;-70
2022/12/01 12:28:04;;;;;;;67.28;26.90;;;6.60;99.90;;;;;;5046466;28;20495;-70
2022/12/01 12:30:35;;;;;;;60.40;25.42;;;6.60;99.90;;;;;;5059978;28;20044;-70
2022/12/01 12:33:14;;;;;;;64.32;26.70;;;6.60;99.90;;;;;;5033749;28;20038;-70
2022/12/01 12:36:17;;;;;;;66.75;27.35;;;6.60;99.90;;;;;;5038403;28;20040;-70
2022/12/01 12:39:07;;;;;;;64.68;27.58;;;6.60;99.90;;;;;;5023966;28;20506;-71
2022/12/01 12:41:50;;;;;;;60.83;27.52;;;6.60;99.90;;;;;;5052523;28;20151;-70
2022/12/01 12:44:50;;;;;;;65.07;27.98;;;6.60;99.90;;;;;;5022528;28;20442;-70
2022/12/01 12:47:54;;;;;;;62.25;27.83;;;6.60;99.90;;;;;;5039825;28;20037;-70
2022/12/01 12:50:39;;;;;;;63.78;27.52;;;6.60;99.90;;;;;;5041261;28;20044;-70
2022/12/01 12:53:14;;;;;;;66.43;27.95;;;6.60;99.90;;;;;;5032467;28;20048;-70
2022/12/01 12:55:46;;;;;;;63.88;27.00;;;6.60;99.90;;;;;;5024836;28;20073;-70
2022/12/01 12:58:20;;;;;;;61.05;26.70;;;6.60;99.90;;;;;;5028138;28;20545;-70
2022/12/01 13:01:14;;;;;;;59.72;25.20;;;6.60;99.90;;;;;;5029387;28;20433;-70
2022/12/01 13:04:08;;;;;;;56.92;26.05;;;6.60;99.90;;;;;;5021418;28;20495;-70